sensor_id;sensor_type;location;lat;lon;timestamp;pressure;altitude;pressure_sealevel;temperature;humidity
71917;BME280;59793;46.506;6.674;2023-03-15T00:01:20;97070.56;;;6.94;73.62
71917;BME280;59793;46.506;6.674;2023-03-15T00:03:48;97035.72;;;6.73;71.05
71917;BME280;59793;46.506;6.674;2023-03-15T00:06:14;97041.84;;;6.77;71.45
71917;BME280;59793;46.506;6.674;2023-03-15T00:08:39;97065.75;;;6.96;71.34
71917;BME280;59793;46.506;6.674;2023-03-15T00:11:05;97041.09;;;6.67;70.28
71917;BME280;59793;46.506;6.674;2023-03-15T00:13:31;97046.53;;;6.62;72.65
71917;BME280;59793;46.506;6.674;2023-03-15T00:15:58;97083.41;;;6.78;74.21
71917;BME280;59793;46.506;6.674;2023-03-15T00:18:24;97099.31;;;6.73;73.37
71917;BME280;59793;46.506;6.674;2023-03-15T00:20:50;97071.22;;;6.44;74.48
71917;BME280;59793;46.506;6.674;2023-03-15T00:23:16;97097.34;;;6.61;71.72
71917;BME280;59793;46.506;6.674;2023-03-15T00:25:45;97068.75;;;6.39;72.88
71917;BME280;59793;46.506;6.674;2023-03-15T00:28:11;97094.31;;;6.51;72.78
71917;BME280;59793;46.506;6.674;2023-03-15T00:30:37;97092.31;;;6.47;68.91
71917;BME280;59793;46.506;6.674;2023-03-15T00:33:02;97073.66;;;6.49;63.40
71917;BME280;59793;46.506;6.674;2023-03-15T00:35:30;97073.94;;;6.56;65.47
71917;BME280;59793;46.506;6.674;2023-03-15T00:37:55;97078.22;;;6.69;63.44
71917;BME280;59793;46.506;6.674;2023-03-15T00:40:22;97091.88;;;6.84;63.93
71917;BME280;59793;46.506;6.674;2023-03-15T00:42:48;97064.25;;;6.57;63.65
71917;BME280;59793;46.506;6.674;2023-03-15T00:45:15;97107.59;;;6.84;67.61
71917;BME280;59793;46.506;6.674;2023-03-15T00:47:41;97108.53;;;6.70;68.20
71917;BME280;59793;46.506;6.674;2023-03-15T00:50:07;97118.44;;;6.65;69.93
71917;BME280;59793;46.506;6.674;2023-03-15T00:52:34;97108.88;;;6.60;67.28
71917;BME280;59793;46.506;6.674;2023-03-15T00:55:00;97103.97;;;6.59;67.06
71917;BME280;59793;46.506;6.674;2023-03-15T00:57:25;97122.13;;;6.64;67.88
71917;BME280;59793;46.506;6.674;2023-03-15T00:59:51;97106.91;;;6.57;67.77
71917;BME280;59793;46.506;6.674;2023-03-15T01:02:17;97131.16;;;6.84;67.48
71917;BME280;59793;46.506;6.674;2023-03-15T01:04:46;97099.34;;;6.56;67.84
71917;BME280;59793;46.506;6.674;2023-03-15T01:07:12;97078.06;;;6.66;68.40
71917;BME280;59793;46.506;6.674;2023-03-15T01:09:37;97109.88;;;6.85;69.31
71917;BME280;59793;46.506;6.674;2023-03-15T01:12:02;97093.94;;;6.69;69.29
71917;BME280;59793;46.506;6.674;2023-03-15T01:14:28;97113.69;;;6.58;68.90
71917;BME280;59793;46.506;6.674;2023-03-15T01:16:53;97136.28;;;6.63;69.03
71917;BME280;59793;46.506;6.674;2023-03-15T01:19:19;97131.38;;;6.61;67.62
71917;BME280;59793;46.506;6.674;2023-03-15T01:21:44;97123.38;;;6.58;66.39
71917;BME280;59793;46.506;6.674;2023-03-15T01:24:13;97148.72;;;6.75;65.02
71917;BME280;59793;46.506;6.674;2023-03-15T01:26:39;97141.53;;;6.63;65.92
71917;BME280;59793;46.506;6.674;2023-03-15T01:29:05;97147.97;;;6.74;66.45
71917;BME280;59793;46.506;6.674;2023-03-15T01:31:31;97137.50;;;6.74;66.38
71917;BME280;59793;46.506;6.674;2023-03-15T01:33:57;97097.53;;;6.39;65.88
71917;BME280;59793;46.506;6.674;2023-03-15T01:36:23;97154.28;;;6.73;65.60
71917;BME280;59793;46.506;6.674;2023-03-15T01:38:49;97149.09;;;6.64;67.25
71917;BME280;59793;46.506;6.674;2023-03-15T01:41:16;97134.63;;;6.58;67.38
71917;BME280;59793;46.506;6.674;2023-03-15T01:43:42;97088.38;;;6.07;65.55
71917;BME280;59793;46.506;6.674;2023-03-15T01:46:29;97106.38;;;6.26;61.71
71917;BME280;59793;46.506;6.674;2023-03-15T01:49:05;97132.94;;;6.45;59.90
71917;BME280;59793;46.506;6.674;2023-03-15T01:56:31;97137.81;;;6.64;58.90
71917;BME280;59793;46.506;6.674;2023-03-15T01:59:00;97107.41;;;6.42;60.03
71917;BME280;59793;46.506;6.674;2023-03-15T02:01:28;97144.47;;;6.61;60.67
71917;BME280;59793;46.506;6.674;2023-03-15T02:04:01;97103.25;;;6.32;60.30
71917;BME280;59793;46.506;6.674;2023-03-15T02:06:30;97126.59;;;6.63;60.86
71917;BME280;59793;46.506;6.674;2023-03-15T02:09:02;97129.53;;;6.62;59.59
71917;BME280;59793;46.506;6.674;2023-03-15T02:11:28;97116.78;;;6.43;59.31
71917;BME280;59793;46.506;6.674;2023-03-15T02:13:55;97091.69;;;6.42;59.45
71917;BME280;59793;46.506;6.674;2023-03-15T02:16:23;97094.94;;;6.39;59.06
71917;BME280;59793;46.506;6.674;2023-03-15T02:18:49;97091.25;;;6.40;57.59
71917;BME280;59793;46.506;6.674;2023-03-15T02:26:54;97123.56;;;6.44;58.42
71917;BME280;59793;46.506;6.674;2023-03-15T02:29:21;97117.56;;;6.35;59.78
71917;BME280;59793;46.506;6.674;2023-03-15T02:31:48;97121.41;;;6.29;60.71
71917;BME280;59793;46.506;6.674;2023-03-15T02:34:13;97099.47;;;6.12;61.51
71917;BME280;59793;46.506;6.674;2023-03-15T02:36:39;97121.13;;;6.21;62.05
71917;BME280;59793;46.506;6.674;2023-03-15T02:39:15;97137.28;;;6.06;62.18
71917;BME280;59793;46.506;6.674;2023-03-15T02:41:43;97141.75;;;6.14;62.90
71917;BME280;59793;46.506;6.674;2023-03-15T02:44:17;97116.25;;;5.94;63.05
71917;BME280;59793;46.506;6.674;2023-03-15T02:46:47;97126.38;;;6.04;63.89
71917;BME280;59793;46.506;6.674;2023-03-15T02:49:14;97097.59;;;5.69;65.17
71917;BME280;59793;46.506;6.674;2023-03-15T02:51:41;97142.66;;;5.84;65.85
71917;BME280;59793;46.506;6.674;2023-03-15T02:54:07;97126.81;;;5.80;65.83
71917;BME280;59793;46.506;6.674;2023-03-15T02:56:32;97143.44;;;5.84;66.55
71917;BME280;59793;46.506;6.674;2023-03-15T02:58:58;97110.66;;;5.52;66.76
71917;BME280;59793;46.506;6.674;2023-03-15T03:01:23;97147.72;;;5.71;65.88
71917;BME280;59793;46.506;6.674;2023-03-15T03:03:49;97130.63;;;5.48;66.45
71917;BME280;59793;46.506;6.674;2023-03-15T03:06:15;97142.25;;;5.24;67.99
71917;BME280;59793;46.506;6.674;2023-03-15T03:08:41;97108.06;;;5.03;67.58
71917;BME280;59793;46.506;6.674;2023-03-15T03:11:14;97125.53;;;4.94;69.24
71917;BME280;59793;46.506;6.674;2023-03-15T03:13:41;97115.22;;;4.81;69.17
71917;BME280;59793;46.506;6.674;2023-03-15T03:16:07;97163.25;;;5.19;68.27
71917;BME280;59793;46.506;6.674;2023-03-15T03:18:33;97136.47;;;4.96;67.10
71917;BME280;59793;46.506;6.674;2023-03-15T03:21:03;97146.47;;;5.03;66.56
71917;BME280;59793;46.506;6.674;2023-03-15T03:23:30;97164.84;;;5.29;65.73
71917;BME280;59793;46.506;6.674;2023-03-15T03:25:56;97129.59;;;5.09;66.44
71917;BME280;59793;46.506;6.674;2023-03-15T03:28:24;97154.31;;;5.03;67.95
71917;BME280;59793;46.506;6.674;2023-03-15T03:30:51;97177.13;;;4.89;68.25
71917;BME280;59793;46.506;6.674;2023-03-15T03:33:17;97140.66;;;4.44;68.14
71917;BME280;59793;46.506;6.674;2023-03-15T03:35:43;97133.91;;;4.43;67.75
71917;BME280;59793;46.506;6.674;2023-03-15T03:38:09;97185.31;;;4.73;66.66
71917;BME280;59793;46.506;6.674;2023-03-15T03:40:36;97180.38;;;4.63;67.90
71917;BME280;59793;46.506;6.674;2023-03-15T03:43:02;97184.03;;;4.62;65.40
71917;BME280;59793;46.506;6.674;2023-03-15T03:45:27;97143.16;;;4.49;65.69
71917;BME280;59793;46.506;6.674;2023-03-15T03:47:52;97172.03;;;4.52;66.17
71917;BME280;59793;46.506;6.674;2023-03-15T03:50:18;97171.38;;;4.47;66.92
71917;BME280;59793;46.506;6.674;2023-03-15T03:52:43;97173.72;;;4.35;67.72
71917;BME280;59793;46.506;6.674;2023-03-15T03:55:10;97158.69;;;4.31;67.27
71917;BME280;59793;46.506;6.674;2023-03-15T03:57:38;97171.78;;;4.40;66.93
71917;BME280;59793;46.506;6.674;2023-03-15T04:00:04;97181.44;;;4.40;67.39
71917;BME280;59793;46.506;6.674;2023-03-15T04:02:30;97171.66;;;4.23;67.68
71917;BME280;59793;46.506;6.674;2023-03-15T04:04:55;97211.91;;;4.53;67.34
71917;BME280;59793;46.506;6.674;2023-03-15T04:07:21;97202.13;;;4.36;67.64
71917;BME280;59793;46.506;6.674;2023-03-15T04:09:46;97170.69;;;3.96;68.29
71917;BME280;59793;46.506;6.674;2023-03-15T04:12:12;97182.34;;;3.99;68.69
71917;BME280;59793;46.506;6.674;2023-03-15T04:14:37;97167.91;;;3.93;68.69
71917;BME280;59793;46.506;6.674;2023-03-15T04:17:02;97204.47;;;4.24;67.71
71917;BME280;59793;46.506;6.674;2023-03-15T04:19:29;97162.28;;;3.99;67.41
71917;BME280;59793;46.506;6.674;2023-03-15T04:21:54;97161.09;;;4.05;68.13
71917;BME280;59793;46.506;6.674;2023-03-15T04:24:20;97183.34;;;4.25;67.56
71917;BME280;59793;46.506;6.674;2023-03-15T04:26:45;97189.63;;;4.24;67.86
71917;BME280;59793;46.506;6.674;2023-03-15T04:29:11;97185.63;;;4.27;66.56
71917;BME280;59793;46.506;6.674;2023-03-15T04:31:36;97187.00;;;4.47;65.87
71917;BME280;59793;46.506;6.674;2023-03-15T04:34:03;97213.38;;;4.68;65.84
71917;BME280;59793;46.506;6.674;2023-03-15T04:36:29;97216.91;;;4.63;65.92
71917;BME280;59793;46.506;6.674;2023-03-15T04:38:54;97174.69;;;4.39;65.64
71917;BME280;59793;46.506;6.674;2023-03-15T04:41:31;97188.69;;;4.43;65.65
71917;BME280;59793;46.506;6.674;2023-03-15T04:43:59;97186.34;;;4.41;65.75
71917;BME280;59793;46.506;6.674;2023-03-15T04:46:24;97170.28;;;4.25;65.70
71917;BME280;59793;46.506;6.674;2023-03-15T04:48:49;97178.84;;;4.17;66.83
71917;BME280;59793;46.506;6.674;2023-03-15T04:51:15;97207.25;;;4.05;67.96
71917;BME280;59793;46.506;6.674;2023-03-15T04:53:40;97188.78;;;3.79;69.23
71917;BME280;59793;46.506;6.674;2023-03-15T04:56:06;97185.31;;;3.56;69.73
71917;BME280;59793;46.506;6.674;2023-03-15T04:58:31;97213.13;;;3.61;69.70
71917;BME280;59793;46.506;6.674;2023-03-15T05:00:57;97222.09;;;3.68;69.41
71917;BME280;59793;46.506;6.674;2023-03-15T05:03:22;97214.84;;;3.51;70.13
71917;BME280;59793;46.506;6.674;2023-03-15T05:05:47;97185.72;;;3.35;69.87
71917;BME280;59793;46.506;6.674;2023-03-15T05:08:13;97244.97;;;3.71;69.35
71917;BME280;59793;46.506;6.674;2023-03-15T05:10:38;97219.28;;;3.78;68.99
71917;BME280;59793;46.506;6.674;2023-03-15T05:13:04;97246.00;;;3.84;69.18
71917;BME280;59793;46.506;6.674;2023-03-15T05:15:29;97200.75;;;3.66;68.73
71917;BME280;59793;46.506;6.674;2023-03-15T05:17:54;97224.78;;;3.63;69.33
71917;BME280;59793;46.506;6.674;2023-03-15T05:20:20;97257.00;;;3.67;69.58
71917;BME280;59793;46.506;6.674;2023-03-15T05:22:46;97264.22;;;3.70;69.13
71917;BME280;59793;46.506;6.674;2023-03-15T05:25:12;97232.97;;;3.43;69.70
71917;BME280;59793;46.506;6.674;2023-03-15T05:27:38;97257.59;;;3.37;70.75
71917;BME280;59793;46.506;6.674;2023-03-15T05:30:06;97256.31;;;3.34;70.41
71917;BME280;59793;46.506;6.674;2023-03-15T05:32:32;97228.50;;;3.02;69.88
71917;BME280;59793;46.506;6.674;2023-03-15T05:35:05;97269.44;;;3.43;68.36
71917;BME280;59793;46.506;6.674;2023-03-15T05:37:31;97270.31;;;3.52;69.46
71917;BME280;59793;46.506;6.674;2023-03-15T05:39:58;97236.00;;;3.03;70.53
71917;BME280;59793;46.506;6.674;2023-03-15T05:42:24;97258.31;;;2.77;72.42
71917;BME280;59793;46.506;6.674;2023-03-15T05:44:54;97212.53;;;2.43;72.83
71917;BME280;59793;46.506;6.674;2023-03-15T05:47:20;97287.31;;;3.03;71.84
71917;BME280;59793;46.506;6.674;2023-03-15T05:49:47;97235.84;;;2.67;72.16
71917;BME280;59793;46.506;6.674;2023-03-15T05:52:12;97293.06;;;3.00;72.47
71917;BME280;59793;46.506;6.674;2023-03-15T05:54:38;97236.28;;;2.55;70.87
71917;BME280;59793;46.506;6.674;2023-03-15T05:57:04;97284.19;;;2.87;70.68
71917;BME280;59793;46.506;6.674;2023-03-15T05:59:29;97252.25;;;2.81;70.21
71917;BME280;59793;46.506;6.674;2023-03-15T06:01:55;97221.19;;;2.71;69.42
71917;BME280;59793;46.506;6.674;2023-03-15T06:04:20;97199.22;;;2.63;68.98
71917;BME280;59793;46.506;6.674;2023-03-15T06:06:46;97281.19;;;3.26;68.40
71917;BME280;59793;46.506;6.674;2023-03-15T06:09:11;97247.63;;;3.11;67.46
71917;BME280;59793;46.506;6.674;2023-03-15T06:11:37;97228.03;;;3.14;67.11
71917;BME280;59793;46.506;6.674;2023-03-15T06:14:02;97279.47;;;3.63;67.13
71917;BME280;59793;46.506;6.674;2023-03-15T06:16:28;97261.75;;;3.65;67.08
71917;BME280;59793;46.506;6.674;2023-03-15T06:18:53;97263.78;;;3.68;67.10
71917;BME280;59793;46.506;6.674;2023-03-15T06:21:19;97254.19;;;3.77;65.93
71917;BME280;59793;46.506;6.674;2023-03-15T06:23:44;97242.44;;;3.80;64.12
71917;BME280;59793;46.506;6.674;2023-03-15T06:26:10;97230.16;;;3.80;64.17
71917;BME280;59793;46.506;6.674;2023-03-15T06:28:35;97279.53;;;4.13;64.54
71917;BME280;59793;46.506;6.674;2023-03-15T06:31:12;97287.72;;;4.20;65.15
71917;BME280;59793;46.506;6.674;2023-03-15T06:33:37;97267.13;;;3.96;65.80
71917;BME280;59793;46.506;6.674;2023-03-15T06:36:03;97307.06;;;4.19;65.59
71917;BME280;59793;46.506;6.674;2023-03-15T06:38:29;97300.53;;;3.94;66.75
71917;BME280;59793;46.506;6.674;2023-03-15T06:40:56;97326.78;;;4.12;66.37
71917;BME280;59793;46.506;6.674;2023-03-15T06:43:23;97274.75;;;3.93;66.70
71917;BME280;59793;46.506;6.674;2023-03-15T06:45:49;97309.59;;;4.11;66.57
71917;BME280;59793;46.506;6.674;2023-03-15T06:48:15;97345.97;;;4.29;66.69
71917;BME280;59793;46.506;6.674;2023-03-15T06:50:41;97347.50;;;4.44;66.01
71917;BME280;59793;46.506;6.674;2023-03-15T06:53:07;97334.81;;;4.51;65.17
71917;BME280;59793;46.506;6.674;2023-03-15T06:55:33;97274.97;;;4.32;64.74
71917;BME280;59793;46.506;6.674;2023-03-15T06:57:58;97323.75;;;4.68;64.58
71917;BME280;59793;46.506;6.674;2023-03-15T07:00:24;97309.63;;;4.69;63.93
71917;BME280;59793;46.506;6.674;2023-03-15T07:02:49;97316.72;;;4.91;63.62
71917;BME280;59793;46.506;6.674;2023-03-15T07:05:15;97318.66;;;5.08;62.91
71917;BME280;59793;46.506;6.674;2023-03-15T07:07:40;97359.16;;;5.50;61.83
71917;BME280;59793;46.506;6.674;2023-03-15T07:10:06;97318.53;;;5.36;61.77
71917;BME280;59793;46.506;6.674;2023-03-15T07:12:31;97348.25;;;5.80;60.95
71917;BME280;59793;46.506;6.674;2023-03-15T07:14:57;97362.88;;;6.12;60.54
71917;BME280;59793;46.506;6.674;2023-03-15T07:17:22;97326.41;;;6.15;59.68
71917;BME280;59793;46.506;6.674;2023-03-15T07:19:48;97330.16;;;6.40;58.62
71917;BME280;59793;46.506;6.674;2023-03-15T07:22:13;97317.53;;;6.51;57.07
71917;BME280;59793;46.506;6.674;2023-03-15T07:24:39;97359.75;;;7.10;55.83
71917;BME280;59793;46.506;6.674;2023-03-15T07:27:04;97364.19;;;7.36;55.01
71917;BME280;59793;46.506;6.674;2023-03-15T07:29:30;97338.44;;;7.21;55.61
71917;BME280;59793;46.506;6.674;2023-03-15T07:31:55;97377.81;;;7.68;54.22
71917;BME280;59793;46.506;6.674;2023-03-15T07:34:21;97378.56;;;7.77;55.38
71917;BME280;59793;46.506;6.674;2023-03-15T07:36:46;97356.53;;;7.69;54.89
71917;BME280;59793;46.506;6.674;2023-03-15T07:39:12;97371.59;;;7.81;55.03
71917;BME280;59793;46.506;6.674;2023-03-15T07:41:37;97368.47;;;7.96;55.54
71917;BME280;59793;46.506;6.674;2023-03-15T07:44:03;97357.50;;;8.03;54.10
71917;BME280;59793;46.506;6.674;2023-03-15T07:46:29;97360.19;;;8.15;54.47
71917;BME280;59793;46.506;6.674;2023-03-15T07:48:55;97369.84;;;8.32;53.43
71917;BME280;59793;46.506;6.674;2023-03-15T07:51:20;97369.94;;;8.14;55.00
71917;BME280;59793;46.506;6.674;2023-03-15T07:53:46;97321.88;;;7.93;55.25
71917;BME280;59793;46.506;6.674;2023-03-15T07:56:11;97324.78;;;8.00;55.22
71917;BME280;59793;46.506;6.674;2023-03-15T07:58:36;97396.88;;;7.94;56.86
71917;BME280;59793;46.506;6.674;2023-03-15T08:01:02;97373.84;;;8.00;56.55
71917;BME280;59793;46.506;6.674;2023-03-15T08:03:27;97375.91;;;7.85;56.74
71917;BME280;59793;46.506;6.674;2023-03-15T08:05:53;97411.72;;;8.20;56.13
71917;BME280;59793;46.506;6.674;2023-03-15T08:08:18;97411.44;;;8.12;56.89
71917;BME280;59793;46.506;6.674;2023-03-15T08:10:44;97398.88;;;8.27;56.89
71917;BME280;59793;46.506;6.674;2023-03-15T08:13:10;97381.97;;;8.15;56.75
71917;BME280;59793;46.506;6.674;2023-03-15T08:15:35;97390.50;;;8.04;57.57
71917;BME280;59793;46.506;6.674;2023-03-15T08:18:01;97408.00;;;8.38;57.78
71917;BME280;59793;46.506;6.674;2023-03-15T08:20:27;97368.63;;;8.38;56.16
71917;BME280;59793;46.506;6.674;2023-03-15T08:22:52;97345.03;;;8.50;55.61
71917;BME280;59793;46.506;6.674;2023-03-15T08:25:21;97406.59;;;9.12;55.51
71917;BME280;59793;46.506;6.674;2023-03-15T08:27:48;97349.53;;;8.50;55.19
71917;BME280;59793;46.506;6.674;2023-03-15T08:30:15;97387.19;;;8.54;56.85
71917;BME280;59793;46.506;6.674;2023-03-15T08:32:42;97380.22;;;8.79;55.23
71917;BME280;59793;46.506;6.674;2023-03-15T08:35:09;97373.75;;;8.97;54.74
71917;BME280;59793;46.506;6.674;2023-03-15T08:37:37;97401.69;;;9.23;54.33
71917;BME280;59793;46.506;6.674;2023-03-15T08:40:03;97387.59;;;9.06;54.47
71917;BME280;59793;46.506;6.674;2023-03-15T08:42:37;97344.34;;;8.62;54.46
71917;BME280;59793;46.506;6.674;2023-03-15T08:45:04;97402.19;;;8.53;56.12
71917;BME280;59793;46.506;6.674;2023-03-15T08:47:32;97401.06;;;8.25;56.33
71917;BME280;59793;46.506;6.674;2023-03-15T08:50:03;97382.09;;;8.19;56.50
71917;BME280;59793;46.506;6.674;2023-03-15T08:52:30;97415.28;;;8.83;55.42
71917;BME280;59793;46.506;6.674;2023-03-15T08:54:56;97418.28;;;8.94;55.15
71917;BME280;59793;46.506;6.674;2023-03-15T08:57:21;97395.31;;;8.91;54.50
71917;BME280;59793;46.506;6.674;2023-03-15T08:59:50;97360.19;;;8.74;53.32
71917;BME280;59793;46.506;6.674;2023-03-15T09:02:16;97383.59;;;8.37;53.88
71917;BME280;59793;46.506;6.674;2023-03-15T09:04:41;97414.00;;;8.89;54.90
71917;BME280;59793;46.506;6.674;2023-03-15T09:07:06;97403.81;;;8.88;53.04
71917;BME280;59793;46.506;6.674;2023-03-15T09:09:32;97403.31;;;8.73;53.94
71917;BME280;59793;46.506;6.674;2023-03-15T09:11:58;97389.22;;;8.78;53.60
71917;BME280;59793;46.506;6.674;2023-03-15T09:14:23;97397.84;;;8.99;53.80
71917;BME280;59793;46.506;6.674;2023-03-15T09:16:49;97380.63;;;9.44;50.74
71917;BME280;59793;46.506;6.674;2023-03-15T09:19:14;97420.03;;;9.10;51.26
71917;BME280;59793;46.506;6.674;2023-03-15T09:21:39;97421.75;;;9.06;52.48
71917;BME280;59793;46.506;6.674;2023-03-15T09:24:05;97425.13;;;8.65;53.99
71917;BME280;59793;46.506;6.674;2023-03-15T09:26:31;97402.97;;;8.75;53.92
71917;BME280;59793;46.506;6.674;2023-03-15T09:28:56;97420.41;;;9.00;52.56
71917;BME280;59793;46.506;6.674;2023-03-15T09:31:21;97422.34;;;8.91;52.94
71917;BME280;59793;46.506;6.674;2023-03-15T09:33:49;97421.56;;;9.12;51.89
71917;BME280;59793;46.506;6.674;2023-03-15T09:36:14;97413.81;;;9.15;52.38
71917;BME280;59793;46.506;6.674;2023-03-15T09:38:42;97419.47;;;8.84;51.18
71917;BME280;59793;46.506;6.674;2023-03-15T09:41:18;97431.34;;;8.60;52.70
71917;BME280;59793;46.506;6.674;2023-03-15T09:46:37;97381.38;;;8.48;51.05
71917;BME280;59793;46.506;6.674;2023-03-15T09:49:16;97436.06;;;8.97;50.37
71917;BME280;59793;46.506;6.674;2023-03-15T09:51:50;97427.47;;;9.63;50.44
71917;BME280;59793;46.506;6.674;2023-03-15T09:54:19;97425.72;;;9.67;48.49
71917;BME280;59793;46.506;6.674;2023-03-15T09:56:54;97430.50;;;9.98;49.00
71917;BME280;59793;46.506;6.674;2023-03-15T09:59:23;97432.28;;;9.61;47.71
71917;BME280;59793;46.506;6.674;2023-03-15T10:01:52;97431.41;;;9.56;50.80
71917;BME280;59793;46.506;6.674;2023-03-15T10:04:27;97424.44;;;9.73;48.78
71917;BME280;59793;46.506;6.674;2023-03-15T10:06:57;97389.16;;;9.98;48.73
71917;BME280;59793;46.506;6.674;2023-03-15T10:09:25;97412.03;;;10.68;47.40
71917;BME280;59793;46.506;6.674;2023-03-15T10:12:11;97434.13;;;10.91;47.39
71917;BME280;59793;46.506;6.674;2023-03-15T10:20:24;97413.19;;;10.70;44.58
71917;BME280;59793;46.506;6.674;2023-03-15T10:23:27;97435.91;;;10.87;45.42
71917;BME280;59793;46.506;6.674;2023-03-15T10:25:45;97442.91;;;11.08;44.09
71917;BME280;59793;46.506;6.674;2023-03-15T10:28:23;97416.41;;;10.64;44.78
71917;BME280;59793;46.506;6.674;2023-03-15T10:30:50;97408.28;;;10.69;46.01
71917;BME280;59793;46.506;6.674;2023-03-15T10:33:30;97425.91;;;10.93;44.39
71917;BME280;59793;46.506;6.674;2023-03-15T10:35:57;97433.97;;;10.60;45.12
71917;BME280;59793;46.506;6.674;2023-03-15T10:38:24;97436.16;;;10.82;45.20
71917;BME280;59793;46.506;6.674;2023-03-15T10:40:53;97425.50;;;11.19;42.93
71917;BME280;59793;46.506;6.674;2023-03-15T10:43:27;97414.69;;;11.36;44.17
71917;BME280;59793;46.506;6.674;2023-03-15T10:46:21;97407.50;;;11.49;45.01
71917;BME280;59793;46.506;6.674;2023-03-15T10:51:32;97426.56;;;12.02;42.15
71917;BME280;59793;46.506;6.674;2023-03-15T10:54:04;97405.84;;;11.44;43.59
71917;BME280;59793;46.506;6.674;2023-03-15T10:56:34;97427.75;;;11.61;43.30
71917;BME280;59793;46.506;6.674;2023-03-15T10:59:01;97409.78;;;11.51;43.76
71917;BME280;59793;46.506;6.674;2023-03-15T11:01:29;97422.66;;;11.68;44.97
71917;BME280;59793;46.506;6.674;2023-03-15T11:04:12;97414.19;;;11.46;46.17
71917;BME280;59793;46.506;6.674;2023-03-15T11:06:47;97420.09;;;11.28;46.73
71917;BME280;59793;46.506;6.674;2023-03-15T11:09:15;97419.28;;;11.39;45.72
71917;BME280;59793;46.506;6.674;2023-03-15T11:14:18;97380.94;;;11.01;42.81
71917;BME280;59793;46.506;6.674;2023-03-15T11:16:50;97406.13;;;11.27;41.35
71917;BME280;59793;46.506;6.674;2023-03-15T11:19:19;97397.03;;;11.53;42.03
71917;BME280;59793;46.506;6.674;2023-03-15T11:21:47;97390.72;;;11.85;42.28
71917;BME280;59793;46.506;6.674;2023-03-15T11:26:54;97406.28;;;12.22;40.28
71917;BME280;59793;46.506;6.674;2023-03-15T11:29:32;97392.47;;;12.44;39.65
71917;BME280;59793;46.506;6.674;2023-03-15T11:32:02;97382.53;;;12.57;40.73
71917;BME280;59793;46.506;6.674;2023-03-15T11:34:39;97391.78;;;12.32;38.55
71917;BME280;59793;46.506;6.674;2023-03-15T11:37:13;97394.28;;;12.40;38.29
71917;BME280;59793;46.506;6.674;2023-03-15T11:39:51;97382.41;;;12.34;39.88
71917;BME280;59793;46.506;6.674;2023-03-15T11:42:22;97348.53;;;12.05;42.45
71917;BME280;59793;46.506;6.674;2023-03-15T11:44:57;97375.78;;;12.25;42.70
71917;BME280;59793;46.506;6.674;2023-03-15T11:47:52;97361.81;;;12.24;42.06
71917;BME280;59793;46.506;6.674;2023-03-15T11:50:19;97366.69;;;12.06;42.11
71917;BME280;59793;46.506;6.674;2023-03-15T11:52:49;97369.56;;;12.01;41.71
71917;BME280;59793;46.506;6.674;2023-03-15T11:55:26;97358.16;;;12.13;41.20
71917;BME280;59793;46.506;6.674;2023-03-15T11:57:53;97371.97;;;12.57;40.95
71917;BME280;59793;46.506;6.674;2023-03-15T12:00:47;97376.94;;;12.78;36.93
71917;BME280;59793;46.506;6.674;2023-03-15T12:03:26;97370.81;;;13.13;36.00
71917;BME280;59793;46.506;6.674;2023-03-15T12:14:03;97348.78;;;13.05;35.11
71917;BME280;59793;46.506;6.674;2023-03-15T12:16:47;97330.91;;;12.79;36.08
71917;BME280;59793;46.506;6.674;2023-03-15T12:19:15;97339.72;;;13.06;35.87
71917;BME280;59793;46.506;6.674;2023-03-15T12:21:45;97299.44;;;12.74;37.06
71917;BME280;59793;46.506;6.674;2023-03-15T12:24:34;97344.59;;;13.89;34.44
71917;BME280;59793;46.506;6.674;2023-03-15T12:27:19;97320.38;;;13.91;33.83
71917;BME280;59793;46.506;6.674;2023-03-15T12:29:47;97322.63;;;14.68;34.02
71917;BME280;59793;46.506;6.674;2023-03-15T12:32:15;97310.09;;;14.12;32.06
71917;BME280;59793;46.506;6.674;2023-03-15T12:37:30;97302.59;;;14.44;32.63
71917;BME280;59793;46.506;6.674;2023-03-15T12:53:11;97293.38;;;13.35;34.37
71917;BME280;59793;46.506;6.674;2023-03-15T12:55:39;97305.19;;;13.61;34.58
71917;BME280;59793;46.506;6.674;2023-03-15T12:58:10;97267.34;;;13.60;34.83
71917;BME280;59793;46.506;6.674;2023-03-15T13:00:37;97296.03;;;13.35;33.32
71917;BME280;59793;46.506;6.674;2023-03-15T13:03:07;97304.31;;;12.91;33.99
71917;BME280;59793;46.506;6.674;2023-03-15T13:09:03;97275.78;;;12.62;32.07
71917;BME280;59793;46.506;6.674;2023-03-15T13:19:55;97292.97;;;12.91;34.00
71917;BME280;59793;46.506;6.674;2023-03-15T13:22:48;97300.53;;;13.12;32.79
71917;BME280;59793;46.506;6.674;2023-03-15T13:25:31;97289.66;;;13.36;31.86
71917;BME280;59793;46.506;6.674;2023-03-15T13:28:05;97271.03;;;12.71;33.14
71917;BME280;59793;46.506;6.674;2023-03-15T13:30:45;97276.59;;;12.85;33.03
71917;BME280;59793;46.506;6.674;2023-03-15T13:33:30;97267.53;;;13.25;33.24
71917;BME280;59793;46.506;6.674;2023-03-15T13:36:04;97288.75;;;13.52;33.52
71917;BME280;59793;46.506;6.674;2023-03-15T13:38:40;97288.47;;;13.34;33.15
71917;BME280;59793;46.506;6.674;2023-03-15T13:41:27;97293.38;;;13.81;31.67
71917;BME280;59793;46.506;6.674;2023-03-15T13:43:55;97302.50;;;13.38;32.95
71917;BME280;59793;46.506;6.674;2023-03-15T13:46:24;97294.81;;;13.29;33.45
71917;BME280;59793;46.506;6.674;2023-03-15T13:48:52;97285.41;;;13.12;34.15
71917;BME280;59793;46.506;6.674;2023-03-15T13:51:29;97295.09;;;13.24;34.70
71917;BME280;59793;46.506;6.674;2023-03-15T13:54:02;97250.72;;;13.18;32.40
71917;BME280;59793;46.506;6.674;2023-03-15T13:56:31;97256.66;;;13.53;34.25
71917;BME280;59793;46.506;6.674;2023-03-15T13:58:57;97263.00;;;14.28;33.00
71917;BME280;59793;46.506;6.674;2023-03-15T14:01:24;97273.91;;;14.23;32.47
71917;BME280;59793;46.506;6.674;2023-03-15T14:03:57;97275.56;;;14.31;30.20
71917;BME280;59793;46.506;6.674;2023-03-15T14:06:26;97269.09;;;14.02;32.31
71917;BME280;59793;46.506;6.674;2023-03-15T14:08:58;97275.00;;;14.19;29.96
71917;BME280;59793;46.506;6.674;2023-03-15T14:13:52;97239.94;;;14.02;32.42
71917;BME280;59793;46.506;6.674;2023-03-15T14:16:33;97247.59;;;13.81;35.23
71917;BME280;59793;46.506;6.674;2023-03-15T14:19:17;97274.13;;;14.11;35.68